All Healing Springs, North Carolina
Current Conditions -  °F | °C
As of 4:53 AM on Friday 31 Oct 2014 (Local Time) from KHKY Reporting Station
Clear Clear  
Wind Chill: 40°   Ceiling: Unl
Heat Index: 40°   Visibility: 10mi
Dew Point: 36°   Wind: 3mph
Humidity: 86%   Direction: 290°WNW
Pressure: 29.96"   Gusts: NA
Location:  35.9243°N, 81.216°W
Report Text: KHKY 310853Z AUTO 29003KT 10SM CLR 04/02 A2996 RMK AO2 SLP135 T00440022 58005 $
Loading
Personal Weather Stations






























Interactive Weather Map
Tropical Storm Tracking
New forecast layout! Learn more

10-Day Weather Forecast

Advertisements
Track Severe Weather on mobile